Mobile, Alabama
Current Conditions -  °F | °C
As of 5:53 AM on Monday 26 Jan 2015 (Local Time) from KBFM Reporting Station
Clear Clear  
Wind Chill:   Ceiling: Unl
Heat Index:   Visibility: 10mi
Dew Point:   Wind: 13mph
Humidity: 63%   Direction: 310°NW
Pressure: 30.03"   Gusts: NA
Location:  30.69°N, 88.05°W
Report Text: KBFM 261153Z AUTO 31011KT 10SM CLR 08/02 A3003 RMK AO2 SLP168 T00830017 10106 20067 53015
Loading
Personal Weather Stations






























Interactive Weather Map New forecast layout! Learn more

10-Day Weather Forecast

Advertisements
Track Severe Weather on mobile